Izmir Cigli Air Force Base, Türkiye

Saat: 02:01 PM EET Tarih: 28 Ocak 2015 (GMT +0200)
Adnan Menderes | Change Station
CLOSE
Current Station
Hava Meydanı
Location: Izmir,
Yükseklik: 394 ft
Nearby Weather Stations

Elev 394 ft 38.29 °N, 27.15 °E | Updated 11 minutes ago

Mostly Cloudy
Çok Bulutlu
52
Feels Like 52
N
7
Rüzgar Değişken Rüzgar from Değişken

Bugün
High -- | Low -- F°
--% Chance of Precip.
Dün
High -- | Low -- F°
Precip. -- inç
7:21 AM 5:28 PM
Şişkin Ay, 64% visible
Basınç 29.83 inç
Görüş Uzaklığı 6.2 mil
Bulutlar Az Bulutlu 3000 ft
Çok Bulutlu 10000 ft
Çiğ noktası 45
Nem oranı 76%
Yağış 0.00 inç
Kar Kalınlığı Not available.
2 out of 12
Pollen Not available.
Hava Kalitesi Not available.
Flu Activity Not available.
METAR LTBJ 281150Z VRB06KT 9999 SCT030 BKN100 11/07 Q1010 NOSIG

More Conditions Fewer Conditions

Basınç 29.83 inç
Görüş Uzaklığı 6.2 mil
Bulutlar Az Bulutlu 3000 ft
Çok Bulutlu 10000 ft
Çiğ noktası 45
Nem oranı 76%
Yağış 0.00 inç
Kar Kalınlığı Not available.
2 out of 12
Pollen Not available.
Hava Kalitesi Not available.
Flu Activity Not available.
METAR LTBJ 281150Z VRB06KT 9999 SCT030 BKN100 11/07 Q1010 NOSIG

More Conditions Fewer Conditions

10-Day Weather Forecast

Almanac

Gökbilim

Jan. 28, 2015 Rise Set
Gerçek Zaman
Günlük Tan
Deniz Tanı
Geceyarısı Yıldız Zamanı
Ay
Görünür Işığın Uzunluğu
Günün Uzunluğu
Tomorrow will be .
, % of the Moon is Illuminated

Günün En Yüksekleri

Country Highs Country Lows

Community

WunderPhotos

Upload Photos

1,791,127 photos uploaded!

WunderBlogs® & News

Nearby

Hava Kalitesi

  Hava Kalitesi Hava Kalitesi Endeksi Kirletici
Not available.

Kar Kalınlığı

Station Depth Yükseklik

Earthquake Activity

Şehir Distance Mag. Time & Date
Minimum magnitude displayed is 2.5.

Coastal Water Temperatures

Yer Sıcaklık

Nearby Weather Stations